sensor_id;sensor_type;location;lat;lon;timestamp;P1;durP1;ratioP1;P2;durP2;ratioP2
42104;SDS011;70664;51.472;5.712;2023-12-28T00:01:25;2.03;;;1.17;;
42104;SDS011;70664;51.472;5.712;2023-12-28T00:03:51;4.05;;;1.40;;
42104;SDS011;70664;51.472;5.712;2023-12-28T00:06:17;2.47;;;1.50;;
42104;SDS011;70664;51.472;5.712;2023-12-28T00:08:43;1.95;;;1.20;;
42104;SDS011;70664;51.472;5.712;2023-12-28T00:11:08;2.60;;;1.30;;
42104;SDS011;70664;51.472;5.712;2023-12-28T00:13:34;1.85;;;1.20;;
42104;SDS011;70664;51.472;5.712;2023-12-28T00:16:00;2.33;;;1.33;;
42104;SDS011;70664;51.472;5.712;2023-12-28T00:18:26;2.33;;;1.10;;
42104;SDS011;70664;51.472;5.712;2023-12-28T00:20:52;2.33;;;1.20;;
42104;SDS011;70664;51.472;5.712;2023-12-28T00:23:18;3.35;;;1.00;;
42104;SDS011;70664;51.472;5.712;2023-12-28T00:25:45;4.55;;;1.30;;
42104;SDS011;70664;51.472;5.712;2023-12-28T00:28:11;1.90;;;1.30;;
42104;SDS011;70664;51.472;5.712;2023-12-28T00:30:37;2.15;;;1.23;;
42104;SDS011;70664;51.472;5.712;2023-12-28T00:33:03;2.03;;;1.23;;
42104;SDS011;70664;51.472;5.712;2023-12-28T00:35:29;1.40;;;1.10;;
42104;SDS011;70664;51.472;5.712;2023-12-28T00:37:55;2.15;;;1.35;;
42104;SDS011;70664;51.472;5.712;2023-12-28T00:40:20;1.92;;;1.30;;
42104;SDS011;70664;51.472;5.712;2023-12-28T00:42:47;1.80;;;1.10;;
42104;SDS011;70664;51.472;5.712;2023-12-28T00:45:13;2.20;;;1.25;;
42104;SDS011;70664;51.472;5.712;2023-12-28T00:47:39;2.10;;;1.20;;
42104;SDS011;70664;51.472;5.712;2023-12-28T00:50:08;1.83;;;1.25;;
42104;SDS011;70664;51.472;5.712;2023-12-28T00:52:36;1.48;;;1.13;;
42104;SDS011;70664;51.472;5.712;2023-12-28T00:55:03;2.30;;;1.30;;
42104;SDS011;70664;51.472;5.712;2023-12-28T00:57:30;3.28;;;1.20;;
42104;SDS011;70664;51.472;5.712;2023-12-28T00:59:56;1.65;;;1.08;;
42104;SDS011;70664;51.472;5.712;2023-12-28T01:02:21;2.13;;;1.33;;
42104;SDS011;70664;51.472;5.712;2023-12-28T01:04:47;1.25;;;1.00;;
42104;SDS011;70664;51.472;5.712;2023-12-28T01:07:13;1.80;;;1.30;;
42104;SDS011;70664;51.472;5.712;2023-12-28T01:09:39;3.30;;;1.50;;
42104;SDS011;70664;51.472;5.712;2023-12-28T01:12:04;1.98;;;1.20;;
42104;SDS011;70664;51.472;5.712;2023-12-28T01:14:31;2.60;;;1.63;;
42104;SDS011;70664;51.472;5.712;2023-12-28T01:16:57;2.38;;;1.27;;
42104;SDS011;70664;51.472;5.712;2023-12-28T01:19:23;1.42;;;1.20;;
42104;SDS011;70664;51.472;5.712;2023-12-28T01:21:49;1.52;;;1.08;;
42104;SDS011;70664;51.472;5.712;2023-12-28T01:24:15;2.25;;;1.23;;
42104;SDS011;70664;51.472;5.712;2023-12-28T01:26:41;1.95;;;1.20;;
42104;SDS011;70664;51.472;5.712;2023-12-28T01:29:07;1.55;;;1.10;;
42104;SDS011;70664;51.472;5.712;2023-12-28T01:31:32;2.55;;;1.40;;
42104;SDS011;70664;51.472;5.712;2023-12-28T01:33:58;2.20;;;1.20;;
42104;SDS011;70664;51.472;5.712;2023-12-28T01:36:24;1.88;;;1.13;;
42104;SDS011;70664;51.472;5.712;2023-12-28T01:38:51;2.13;;;1.23;;
42104;SDS011;70664;51.472;5.712;2023-12-28T01:41:16;1.50;;;1.30;;
42104;SDS011;70664;51.472;5.712;2023-12-28T01:43:42;2.00;;;1.20;;
42104;SDS011;70664;51.472;5.712;2023-12-28T01:46:10;2.25;;;1.40;;
42104;SDS011;70664;51.472;5.712;2023-12-28T01:48:41;1.52;;;1.10;;
42104;SDS011;70664;51.472;5.712;2023-12-28T01:51:09;2.78;;;1.30;;
42104;SDS011;70664;51.472;5.712;2023-12-28T01:53:39;2.88;;;1.20;;
42104;SDS011;70664;51.472;5.712;2023-12-28T01:56:06;2.13;;;1.10;;
42104;SDS011;70664;51.472;5.712;2023-12-28T01:58:33;2.05;;;1.25;;
42104;SDS011;70664;51.472;5.712;2023-12-28T02:01:02;2.78;;;1.40;;
42104;SDS011;70664;51.472;5.712;2023-12-28T02:03:29;2.60;;;1.30;;
42104;SDS011;70664;51.472;5.712;2023-12-28T02:05:56;2.08;;;1.40;;
42104;SDS011;70664;51.472;5.712;2023-12-28T02:08:22;2.90;;;1.35;;
42104;SDS011;70664;51.472;5.712;2023-12-28T02:10:47;1.95;;;1.20;;
42104;SDS011;70664;51.472;5.712;2023-12-28T02:13:13;1.75;;;1.25;;
42104;SDS011;70664;51.472;5.712;2023-12-28T02:15:39;1.55;;;1.10;;
42104;SDS011;70664;51.472;5.712;2023-12-28T02:18:09;1.50;;;1.02;;
42104;SDS011;70664;51.472;5.712;2023-12-28T02:20:40;1.80;;;1.10;;
42104;SDS011;70664;51.472;5.712;2023-12-28T02:23:07;1.60;;;1.20;;
42104;SDS011;70664;51.472;5.712;2023-12-28T02:25:35;1.70;;;1.20;;
42104;SDS011;70664;51.472;5.712;2023-12-28T02:28:00;1.48;;;1.05;;
42104;SDS011;70664;51.472;5.712;2023-12-28T02:30:27;1.80;;;1.40;;
42104;SDS011;70664;51.472;5.712;2023-12-28T02:35:45;2.10;;;1.20;;
42104;SDS011;70664;51.472;5.712;2023-12-28T02:38:20;2.05;;;1.23;;
42104;SDS011;70664;51.472;5.712;2023-12-28T02:40:48;2.15;;;1.17;;
42104;SDS011;70664;51.472;5.712;2023-12-28T02:43:14;1.23;;;0.95;;
42104;SDS011;70664;51.472;5.712;2023-12-28T02:45:40;2.50;;;1.38;;
42104;SDS011;70664;51.472;5.712;2023-12-28T02:48:06;2.47;;;1.30;;
42104;SDS011;70664;51.472;5.712;2023-12-28T02:50:33;1.42;;;1.00;;
42104;SDS011;70664;51.472;5.712;2023-12-28T02:52:59;1.80;;;1.00;;
42104;SDS011;70664;51.472;5.712;2023-12-28T02:55:25;1.50;;;1.20;;
42104;SDS011;70664;51.472;5.712;2023-12-28T02:57:52;1.80;;;1.10;;
42104;SDS011;70664;51.472;5.712;2023-12-28T03:00:21;1.63;;;1.00;;
42104;SDS011;70664;51.472;5.712;2023-12-28T03:02:47;2.00;;;1.20;;
42104;SDS011;70664;51.472;5.712;2023-12-28T03:05:13;2.17;;;1.10;;
42104;SDS011;70664;51.472;5.712;2023-12-28T03:07:38;2.17;;;1.20;;
42104;SDS011;70664;51.472;5.712;2023-12-28T03:10:05;1.50;;;1.10;;
42104;SDS011;70664;51.472;5.712;2023-12-28T03:12:32;2.30;;;1.20;;
42104;SDS011;70664;51.472;5.712;2023-12-28T03:14:58;2.47;;;1.40;;
42104;SDS011;70664;51.472;5.712;2023-12-28T03:17:24;2.22;;;1.20;;
42104;SDS011;70664;51.472;5.712;2023-12-28T03:19:50;1.88;;;1.30;;
42104;SDS011;70664;51.472;5.712;2023-12-28T03:22:16;2.10;;;0.95;;
42104;SDS011;70664;51.472;5.712;2023-12-28T03:24:42;1.98;;;1.13;;
42104;SDS011;70664;51.472;5.712;2023-12-28T03:27:08;1.38;;;1.05;;
42104;SDS011;70664;51.472;5.712;2023-12-28T03:29:34;1.92;;;1.23;;
42104;SDS011;70664;51.472;5.712;2023-12-28T03:32:01;1.40;;;1.17;;
42104;SDS011;70664;51.472;5.712;2023-12-28T03:34:27;1.20;;;1.10;;
42104;SDS011;70664;51.472;5.712;2023-12-28T03:36:55;3.05;;;1.10;;
42104;SDS011;70664;51.472;5.712;2023-12-28T03:39:22;1.77;;;1.20;;
42104;SDS011;70664;51.472;5.712;2023-12-28T03:41:48;1.85;;;1.10;;
42104;SDS011;70664;51.472;5.712;2023-12-28T03:44:14;1.67;;;1.05;;
42104;SDS011;70664;51.472;5.712;2023-12-28T03:46:40;1.40;;;1.10;;
42104;SDS011;70664;51.472;5.712;2023-12-28T03:49:05;2.05;;;1.00;;
42104;SDS011;70664;51.472;5.712;2023-12-28T03:51:31;1.30;;;1.08;;
42104;SDS011;70664;51.472;5.712;2023-12-28T03:53:57;1.63;;;1.20;;
42104;SDS011;70664;51.472;5.712;2023-12-28T03:56:24;1.42;;;1.23;;
42104;SDS011;70664;51.472;5.712;2023-12-28T03:58:51;1.90;;;1.33;;
42104;SDS011;70664;51.472;5.712;2023-12-28T04:01:18;1.48;;;1.00;;
42104;SDS011;70664;51.472;5.712;2023-12-28T04:03:44;1.63;;;1.20;;
42104;SDS011;70664;51.472;5.712;2023-12-28T04:06:11;2.47;;;1.17;;
42104;SDS011;70664;51.472;5.712;2023-12-28T04:08:40;1.45;;;1.05;;
42104;SDS011;70664;51.472;5.712;2023-12-28T04:11:06;2.95;;;1.17;;
42104;SDS011;70664;51.472;5.712;2023-12-28T04:13:32;1.70;;;1.10;;
42104;SDS011;70664;51.472;5.712;2023-12-28T04:15:58;1.48;;;1.10;;
42104;SDS011;70664;51.472;5.712;2023-12-28T04:18:24;1.50;;;1.10;;
42104;SDS011;70664;51.472;5.712;2023-12-28T04:20:49;1.50;;;1.00;;
42104;SDS011;70664;51.472;5.712;2023-12-28T04:23:15;1.85;;;1.20;;
42104;SDS011;70664;51.472;5.712;2023-12-28T04:25:41;1.40;;;1.00;;
42104;SDS011;70664;51.472;5.712;2023-12-28T04:28:07;2.80;;;1.20;;
42104;SDS011;70664;51.472;5.712;2023-12-28T04:30:33;2.10;;;1.10;;
42104;SDS011;70664;51.472;5.712;2023-12-28T04:32:59;1.33;;;1.10;;
42104;SDS011;70664;51.472;5.712;2023-12-28T04:35:26;1.83;;;1.27;;
42104;SDS011;70664;51.472;5.712;2023-12-28T04:37:52;1.65;;;1.30;;
42104;SDS011;70664;51.472;5.712;2023-12-28T04:40:18;1.65;;;1.20;;
42104;SDS011;70664;51.472;5.712;2023-12-28T04:42:43;1.13;;;1.00;;
42104;SDS011;70664;51.472;5.712;2023-12-28T04:45:09;1.52;;;1.00;;
42104;SDS011;70664;51.472;5.712;2023-12-28T04:47:35;2.92;;;1.40;;
42104;SDS011;70664;51.472;5.712;2023-12-28T04:50:02;2.58;;;1.35;;
42104;SDS011;70664;51.472;5.712;2023-12-28T04:52:29;1.25;;;1.02;;
42104;SDS011;70664;51.472;5.712;2023-12-28T04:54:55;1.70;;;1.23;;
42104;SDS011;70664;51.472;5.712;2023-12-28T04:57:21;1.83;;;1.35;;
42104;SDS011;70664;51.472;5.712;2023-12-28T04:59:52;1.92;;;1.10;;
42104;SDS011;70664;51.472;5.712;2023-12-28T05:02:19;1.63;;;1.10;;
42104;SDS011;70664;51.472;5.712;2023-12-28T05:04:44;1.60;;;1.02;;
42104;SDS011;70664;51.472;5.712;2023-12-28T05:07:10;1.80;;;1.30;;
42104;SDS011;70664;51.472;5.712;2023-12-28T05:09:36;2.85;;;1.40;;
42104;SDS011;70664;51.472;5.712;2023-12-28T05:12:02;2.13;;;1.20;;
42104;SDS011;70664;51.472;5.712;2023-12-28T05:14:28;2.20;;;1.50;;
42104;SDS011;70664;51.472;5.712;2023-12-28T05:16:54;1.58;;;1.10;;
42104;SDS011;70664;51.472;5.712;2023-12-28T05:19:20;1.67;;;1.02;;
42104;SDS011;70664;51.472;5.712;2023-12-28T05:21:45;2.33;;;1.10;;
42104;SDS011;70664;51.472;5.712;2023-12-28T05:24:12;1.83;;;1.10;;
42104;SDS011;70664;51.472;5.712;2023-12-28T05:26:38;1.20;;;0.90;;
42104;SDS011;70664;51.472;5.712;2023-12-28T05:29:04;1.98;;;1.30;;
42104;SDS011;70664;51.472;5.712;2023-12-28T05:31:30;1.45;;;1.20;;
42104;SDS011;70664;51.472;5.712;2023-12-28T05:33:56;1.75;;;1.20;;
42104;SDS011;70664;51.472;5.712;2023-12-28T05:36:23;1.60;;;1.10;;
42104;SDS011;70664;51.472;5.712;2023-12-28T05:38:49;3.03;;;1.40;;
42104;SDS011;70664;51.472;5.712;2023-12-28T05:41:15;1.73;;;1.25;;
42104;SDS011;70664;51.472;5.712;2023-12-28T05:43:41;1.80;;;1.10;;
42104;SDS011;70664;51.472;5.712;2023-12-28T05:46:07;1.83;;;1.10;;
42104;SDS011;70664;51.472;5.712;2023-12-28T05:48:33;1.98;;;1.42;;
42104;SDS011;70664;51.472;5.712;2023-12-28T05:50:59;3.47;;;1.40;;
42104;SDS011;70664;51.472;5.712;2023-12-28T05:53:25;1.23;;;1.00;;
42104;SDS011;70664;51.472;5.712;2023-12-28T05:55:52;2.55;;;1.10;;
42104;SDS011;70664;51.472;5.712;2023-12-28T05:58:18;1.55;;;1.10;;
42104;SDS011;70664;51.472;5.712;2023-12-28T06:00:44;1.13;;;1.00;;
42104;SDS011;70664;51.472;5.712;2023-12-28T06:03:13;2.15;;;1.00;;
42104;SDS011;70664;51.472;5.712;2023-12-28T06:05:39;1.58;;;0.98;;
42104;SDS011;70664;51.472;5.712;2023-12-28T06:08:05;1.45;;;1.17;;
42104;SDS011;70664;51.472;5.712;2023-12-28T06:10:31;2.58;;;1.38;;
42104;SDS011;70664;51.472;5.712;2023-12-28T06:12:57;2.13;;;1.30;;
42104;SDS011;70664;51.472;5.712;2023-12-28T06:15:22;2.08;;;1.20;;
42104;SDS011;70664;51.472;5.712;2023-12-28T06:17:48;1.58;;;1.00;;
42104;SDS011;70664;51.472;5.712;2023-12-28T06:20:14;2.38;;;1.20;;
42104;SDS011;70664;51.472;5.712;2023-12-28T06:22:40;2.00;;;1.20;;
42104;SDS011;70664;51.472;5.712;2023-12-28T06:25:06;2.15;;;1.13;;
42104;SDS011;70664;51.472;5.712;2023-12-28T06:27:32;1.45;;;1.00;;
42104;SDS011;70664;51.472;5.712;2023-12-28T06:29:58;1.77;;;1.00;;
42104;SDS011;70664;51.472;5.712;2023-12-28T06:32:24;1.95;;;1.20;;
42104;SDS011;70664;51.472;5.712;2023-12-28T06:34:50;1.90;;;1.08;;
42104;SDS011;70664;51.472;5.712;2023-12-28T06:37:16;1.38;;;1.17;;
42104;SDS011;70664;51.472;5.712;2023-12-28T06:39:42;1.98;;;1.25;;
42104;SDS011;70664;51.472;5.712;2023-12-28T06:42:08;1.33;;;1.23;;
42104;SDS011;70664;51.472;5.712;2023-12-28T06:44:33;1.35;;;1.10;;
42104;SDS011;70664;51.472;5.712;2023-12-28T06:46:59;1.83;;;1.10;;
42104;SDS011;70664;51.472;5.712;2023-12-28T06:49:25;2.25;;;1.17;;
42104;SDS011;70664;51.472;5.712;2023-12-28T06:51:51;1.75;;;1.10;;
42104;SDS011;70664;51.472;5.712;2023-12-28T06:54:17;2.17;;;1.20;;
42104;SDS011;70664;51.472;5.712;2023-12-28T06:56:43;2.70;;;1.00;;
42104;SDS011;70664;51.472;5.712;2023-12-28T06:59:09;2.90;;;1.10;;
42104;SDS011;70664;51.472;5.712;2023-12-28T07:01:37;2.65;;;1.30;;
42104;SDS011;70664;51.472;5.712;2023-12-28T07:04:04;2.03;;;1.23;;
42104;SDS011;70664;51.472;5.712;2023-12-28T07:06:30;2.50;;;1.25;;
42104;SDS011;70664;51.472;5.712;2023-12-28T07:08:55;2.13;;;1.20;;
42104;SDS011;70664;51.472;5.712;2023-12-28T07:11:21;2.28;;;1.17;;
42104;SDS011;70664;51.472;5.712;2023-12-28T07:13:47;2.22;;;1.10;;
42104;SDS011;70664;51.472;5.712;2023-12-28T07:16:13;1.77;;;1.13;;
42104;SDS011;70664;51.472;5.712;2023-12-28T07:18:40;3.60;;;1.23;;
42104;SDS011;70664;51.472;5.712;2023-12-28T07:21:06;3.00;;;1.33;;
42104;SDS011;70664;51.472;5.712;2023-12-28T07:23:36;1.55;;;1.20;;
42104;SDS011;70664;51.472;5.712;2023-12-28T07:26:03;3.17;;;1.30;;
42104;SDS011;70664;51.472;5.712;2023-12-28T07:28:29;3.15;;;1.30;;
42104;SDS011;70664;51.472;5.712;2023-12-28T07:30:55;2.40;;;1.13;;
42104;SDS011;70664;51.472;5.712;2023-12-28T07:33:21;1.85;;;1.00;;
42104;SDS011;70664;51.472;5.712;2023-12-28T07:35:47;3.40;;;1.13;;
42104;SDS011;70664;51.472;5.712;2023-12-28T07:38:13;3.33;;;1.33;;
42104;SDS011;70664;51.472;5.712;2023-12-28T07:40:39;3.65;;;1.40;;
42104;SDS011;70664;51.472;5.712;2023-12-28T07:43:05;3.00;;;1.30;;
42104;SDS011;70664;51.472;5.712;2023-12-28T07:45:31;3.45;;;1.15;;
42104;SDS011;70664;51.472;5.712;2023-12-28T07:47:57;4.30;;;1.40;;
42104;SDS011;70664;51.472;5.712;2023-12-28T07:50:26;6.95;;;1.95;;
42104;SDS011;70664;51.472;5.712;2023-12-28T07:52:51;3.67;;;1.15;;
42104;SDS011;70664;51.472;5.712;2023-12-28T07:55:17;4.18;;;1.40;;
42104;SDS011;70664;51.472;5.712;2023-12-28T07:57:43;4.20;;;1.52;;
42104;SDS011;70664;51.472;5.712;2023-12-28T08:00:09;3.72;;;1.30;;
42104;SDS011;70664;51.472;5.712;2023-12-28T08:02:35;2.33;;;1.30;;
42104;SDS011;70664;51.472;5.712;2023-12-28T08:05:01;2.05;;;0.90;;
42104;SDS011;70664;51.472;5.712;2023-12-28T08:07:28;4.20;;;1.17;;
42104;SDS011;70664;51.472;5.712;2023-12-28T08:09:54;1.92;;;1.05;;
42104;SDS011;70664;51.472;5.712;2023-12-28T08:12:20;5.35;;;1.40;;
42104;SDS011;70664;51.472;5.712;2023-12-28T08:14:46;2.95;;;1.35;;
42104;SDS011;70664;51.472;5.712;2023-12-28T08:17:12;3.95;;;1.40;;
42104;SDS011;70664;51.472;5.712;2023-12-28T08:19:38;6.13;;;1.35;;
42104;SDS011;70664;51.472;5.712;2023-12-28T08:22:04;4.93;;;1.40;;
42104;SDS011;70664;51.472;5.712;2023-12-28T08:24:29;4.78;;;1.80;;
42104;SDS011;70664;51.472;5.712;2023-12-28T08:26:55;3.58;;;1.38;;
42104;SDS011;70664;51.472;5.712;2023-12-28T08:29:25;3.90;;;1.60;;
42104;SDS011;70664;51.472;5.712;2023-12-28T08:31:51;6.25;;;1.50;;
42104;SDS011;70664;51.472;5.712;2023-12-28T08:34:17;2.35;;;1.02;;
42104;SDS011;70664;51.472;5.712;2023-12-28T08:36:43;4.45;;;1.48;;
42104;SDS011;70664;51.472;5.712;2023-12-28T08:39:09;3.95;;;1.45;;
42104;SDS011;70664;51.472;5.712;2023-12-28T08:41:35;3.58;;;1.50;;
42104;SDS011;70664;51.472;5.712;2023-12-28T08:44:01;6.70;;;1.60;;
42104;SDS011;70664;51.472;5.712;2023-12-28T08:46:26;3.03;;;1.38;;
42104;SDS011;70664;51.472;5.712;2023-12-28T08:48:53;4.82;;;1.30;;
42104;SDS011;70664;51.472;5.712;2023-12-28T08:51:19;5.18;;;1.42;;
42104;SDS011;70664;51.472;5.712;2023-12-28T08:53:45;5.00;;;1.40;;
42104;SDS011;70664;51.472;5.712;2023-12-28T08:56:19;4.72;;;1.42;;
42104;SDS011;70664;51.472;5.712;2023-12-28T08:58:46;5.22;;;1.10;;
42104;SDS011;70664;51.472;5.712;2023-12-28T09:01:22;5.68;;;1.50;;
42104;SDS011;70664;51.472;5.712;2023-12-28T09:03:52;5.35;;;1.40;;
42104;SDS011;70664;51.472;5.712;2023-12-28T09:06:19;4.70;;;1.45;;
42104;SDS011;70664;51.472;5.712;2023-12-28T09:08:47;4.80;;;1.33;;
42104;SDS011;70664;51.472;5.712;2023-12-28T09:11:15;5.60;;;1.33;;
42104;SDS011;70664;51.472;5.712;2023-12-28T09:13:42;3.03;;;1.20;;
42104;SDS011;70664;51.472;5.712;2023-12-28T09:16:09;4.55;;;1.50;;
42104;SDS011;70664;51.472;5.712;2023-12-28T09:18:38;4.40;;;1.58;;
42104;SDS011;70664;51.472;5.712;2023-12-28T09:21:04;3.50;;;1.50;;
42104;SDS011;70664;51.472;5.712;2023-12-28T09:23:32;5.50;;;1.55;;
42104;SDS011;70664;51.472;5.712;2023-12-28T09:25:59;3.70;;;1.27;;
42104;SDS011;70664;51.472;5.712;2023-12-28T09:28:28;3.60;;;1.25;;
42104;SDS011;70664;51.472;5.712;2023-12-28T09:30:54;3.53;;;1.50;;
42104;SDS011;70664;51.472;5.712;2023-12-28T09:33:20;3.40;;;1.40;;
42104;SDS011;70664;51.472;5.712;2023-12-28T09:35:46;3.80;;;1.30;;
42104;SDS011;70664;51.472;5.712;2023-12-28T09:38:12;2.83;;;1.23;;
42104;SDS011;70664;51.472;5.712;2023-12-28T09:40:42;4.50;;;1.45;;
42104;SDS011;70664;51.472;5.712;2023-12-28T09:46:14;4.05;;;1.50;;
42104;SDS011;70664;51.472;5.712;2023-12-28T09:48:40;5.78;;;1.50;;
42104;SDS011;70664;51.472;5.712;2023-12-28T09:51:06;4.95;;;1.50;;
42104;SDS011;70664;51.472;5.712;2023-12-28T09:53:31;3.47;;;1.33;;
42104;SDS011;70664;51.472;5.712;2023-12-28T09:55:58;2.85;;;1.40;;
42104;SDS011;70664;51.472;5.712;2023-12-28T09:58:24;4.95;;;1.50;;
42104;SDS011;70664;51.472;5.712;2023-12-28T10:00:52;3.38;;;1.35;;
42104;SDS011;70664;51.472;5.712;2023-12-28T10:03:19;4.32;;;1.40;;
42104;SDS011;70664;51.472;5.712;2023-12-28T10:05:46;3.83;;;1.35;;
42104;SDS011;70664;51.472;5.712;2023-12-28T10:08:12;2.45;;;1.40;;
42104;SDS011;70664;51.472;5.712;2023-12-28T10:10:41;3.55;;;1.30;;
42104;SDS011;70664;51.472;5.712;2023-12-28T10:13:09;6.20;;;1.50;;
42104;SDS011;70664;51.472;5.712;2023-12-28T10:15:36;2.35;;;1.30;;
42104;SDS011;70664;51.472;5.712;2023-12-28T10:18:05;6.70;;;1.70;;
42104;SDS011;70664;51.472;5.712;2023-12-28T10:20:31;3.83;;;1.42;;
42104;SDS011;70664;51.472;5.712;2023-12-28T10:23:00;7.30;;;1.50;;
42104;SDS011;70664;51.472;5.712;2023-12-28T10:25:26;2.85;;;1.40;;
42104;SDS011;70664;51.472;5.712;2023-12-28T10:27:53;5.13;;;1.40;;
42104;SDS011;70664;51.472;5.712;2023-12-28T10:30:20;5.97;;;1.60;;
42104;SDS011;70664;51.472;5.712;2023-12-28T10:32:46;4.68;;;1.63;;
42104;SDS011;70664;51.472;5.712;2023-12-28T10:35:12;5.15;;;1.63;;
42104;SDS011;70664;51.472;5.712;2023-12-28T10:37:42;7.03;;;1.58;;
42104;SDS011;70664;51.472;5.712;2023-12-28T10:40:12;3.20;;;1.27;;
42104;SDS011;70664;51.472;5.712;2023-12-28T10:42:46;2.67;;;1.40;;
42104;SDS011;70664;51.472;5.712;2023-12-28T10:45:24;4.38;;;1.42;;
42104;SDS011;70664;51.472;5.712;2023-12-28T10:48:09;5.28;;;1.42;;
42104;SDS011;70664;51.472;5.712;2023-12-28T10:50:40;5.93;;;1.50;;
42104;SDS011;70664;51.472;5.712;2023-12-28T11:01:57;3.35;;;1.38;;
42104;SDS011;70664;51.472;5.712;2023-12-28T11:04:31;2.78;;;1.23;;
42104;SDS011;70664;51.472;5.712;2023-12-28T11:07:07;4.78;;;1.27;;
42104;SDS011;70664;51.472;5.712;2023-12-28T11:09:37;3.13;;;1.33;;
42104;SDS011;70664;51.472;5.712;2023-12-28T11:12:07;4.55;;;1.52;;
42104;SDS011;70664;51.472;5.712;2023-12-28T11:14:40;3.45;;;1.42;;
42104;SDS011;70664;51.472;5.712;2023-12-28T11:17:08;5.82;;;1.60;;
42104;SDS011;70664;51.472;5.712;2023-12-28T11:19:36;4.63;;;1.42;;
42104;SDS011;70664;51.472;5.712;2023-12-28T11:22:03;4.05;;;1.20;;
42104;SDS011;70664;51.472;5.712;2023-12-28T11:24:30;4.57;;;1.45;;
42104;SDS011;70664;51.472;5.712;2023-12-28T11:26:57;4.68;;;1.50;;
42104;SDS011;70664;51.472;5.712;2023-12-28T11:29:24;3.20;;;1.50;;
42104;SDS011;70664;51.472;5.712;2023-12-28T11:31:57;4.70;;;1.45;;
42104;SDS011;70664;51.472;5.712;2023-12-28T11:34:25;5.20;;;1.63;;
42104;SDS011;70664;51.472;5.712;2023-12-28T11:36:57;235.23;;;32.10;;
42104;SDS011;70664;51.472;5.712;2023-12-28T11:39:35;96.20;;;13.88;;
42104;SDS011;70664;51.472;5.712;2023-12-28T11:42:04;55.05;;;12.50;;
42104;SDS011;70664;51.472;5.712;2023-12-28T11:44:40;49.03;;;10.00;;
42104;SDS011;70664;51.472;5.712;2023-12-28T11:47:12;43.80;;;14.52;;
42104;SDS011;70664;51.472;5.712;2023-12-28T11:49:46;48.45;;;9.13;;
42104;SDS011;70664;51.472;5.712;2023-12-28T11:52:23;44.53;;;8.98;;
42104;SDS011;70664;51.472;5.712;2023-12-28T11:54:51;40.85;;;8.05;;
42104;SDS011;70664;51.472;5.712;2023-12-28T11:57:17;37.85;;;7.32;;
42104;SDS011;70664;51.472;5.712;2023-12-28T11:59:43;38.17;;;7.53;;
42104;SDS011;70664;51.472;5.712;2023-12-28T12:02:09;39.45;;;7.68;;
42104;SDS011;70664;51.472;5.712;2023-12-28T12:04:36;31.73;;;7.57;;
42104;SDS011;70664;51.472;5.712;2023-12-28T12:07:02;37.50;;;7.63;;
42104;SDS011;70664;51.472;5.712;2023-12-28T12:09:29;39.38;;;7.28;;
42104;SDS011;70664;51.472;5.712;2023-12-28T12:11:59;30.45;;;7.00;;
42104;SDS011;70664;51.472;5.712;2023-12-28T12:14:29;28.88;;;7.75;;
42104;SDS011;70664;51.472;5.712;2023-12-28T12:16:56;35.17;;;7.10;;
42104;SDS011;70664;51.472;5.712;2023-12-28T12:19:23;28.92;;;7.43;;
42104;SDS011;70664;51.472;5.712;2023-12-28T12:21:54;31.52;;;7.10;;
42104;SDS011;70664;51.472;5.712;2023-12-28T12:24:21;29.60;;;6.90;;
42104;SDS011;70664;51.472;5.712;2023-12-28T12:26:49;30.45;;;6.78;;
42104;SDS011;70664;51.472;5.712;2023-12-28T12:29:16;26.92;;;6.78;;
42104;SDS011;70664;51.472;5.712;2023-12-28T12:31:43;25.52;;;6.47;;
42104;SDS011;70664;51.472;5.712;2023-12-28T12:34:11;28.33;;;6.43;;
42104;SDS011;70664;51.472;5.712;2023-12-28T12:36:40;35.28;;;6.50;;
42104;SDS011;70664;51.472;5.712;2023-12-28T12:39:06;27.05;;;6.10;;
42104;SDS011;70664;51.472;5.712;2023-12-28T12:41:36;31.33;;;7.38;;
42104;SDS011;70664;51.472;5.712;2023-12-28T12:44:02;27.48;;;6.35;;
42104;SDS011;70664;51.472;5.712;2023-12-28T12:46:29;29.15;;;6.38;;
42104;SDS011;70664;51.472;5.712;2023-12-28T12:48:56;30.48;;;6.75;;
42104;SDS011;70664;51.472;5.712;2023-12-28T12:51:24;27.35;;;7.25;;
42104;SDS011;70664;51.472;5.712;2023-12-28T12:53:58;25.38;;;6.63;;
42104;SDS011;70664;51.472;5.712;2023-12-28T12:56:28;24.85;;;6.35;;
42104;SDS011;70664;51.472;5.712;2023-12-28T12:58:55;29.67;;;6.68;;
42104;SDS011;70664;51.472;5.712;2023-12-28T13:01:22;23.45;;;6.38;;
42104;SDS011;70664;51.472;5.712;2023-12-28T13:03:49;27.20;;;6.65;;
42104;SDS011;70664;51.472;5.712;2023-12-28T13:06:15;32.38;;;7.90;;
42104;SDS011;70664;51.472;5.712;2023-12-28T13:08:42;25.30;;;6.80;;
42104;SDS011;70664;51.472;5.712;2023-12-28T13:11:07;25.58;;;6.78;;
42104;SDS011;70664;51.472;5.712;2023-12-28T13:13:34;23.27;;;6.40;;
42104;SDS011;70664;51.472;5.712;2023-12-28T13:16:01;26.77;;;6.75;;
42104;SDS011;70664;51.472;5.712;2023-12-28T13:18:27;22.27;;;6.07;;
42104;SDS011;70664;51.472;5.712;2023-12-28T13:20:53;26.10;;;6.30;;
42104;SDS011;70664;51.472;5.712;2023-12-28T13:23:19;25.67;;;6.47;;
42104;SDS011;70664;51.472;5.712;2023-12-28T13:25:45;21.08;;;6.10;;
42104;SDS011;70664;51.472;5.712;2023-12-28T13:28:11;18.15;;;5.80;;
42104;SDS011;70664;51.472;5.712;2023-12-28T13:30:38;27.05;;;6.57;;
42104;SDS011;70664;51.472;5.712;2023-12-28T13:33:04;24.85;;;6.55;;
42104;SDS011;70664;51.472;5.712;2023-12-28T13:35:32;25.35;;;5.82;;
42104;SDS011;70664;51.472;5.712;2023-12-28T13:37:58;19.38;;;5.30;;
42104;SDS011;70664;51.472;5.712;2023-12-28T13:40:26;21.30;;;6.13;;
42104;SDS011;70664;51.472;5.712;2023-12-28T13:42:53;26.85;;;5.93;;
42104;SDS011;70664;51.472;5.712;2023-12-28T13:45:19;23.90;;;6.20;;
42104;SDS011;70664;51.472;5.712;2023-12-28T13:47:44;22.42;;;5.88;;
42104;SDS011;70664;51.472;5.712;2023-12-28T13:50:10;18.85;;;5.40;;
42104;SDS011;70664;51.472;5.712;2023-12-28T13:52:36;24.05;;;6.45;;
42104;SDS011;70664;51.472;5.712;2023-12-28T13:55:02;18.92;;;5.30;;
42104;SDS011;70664;51.472;5.712;2023-12-28T13:57:28;17.33;;;5.20;;
42104;SDS011;70664;51.472;5.712;2023-12-28T13:59:54;19.50;;;5.43;;
42104;SDS011;70664;51.472;5.712;2023-12-28T14:02:22;24.80;;;5.97;;
42104;SDS011;70664;51.472;5.712;2023-12-28T14:04:47;17.52;;;5.55;;
42104;SDS011;70664;51.472;5.712;2023-12-28T14:07:13;16.70;;;4.78;;
42104;SDS011;70664;51.472;5.712;2023-12-28T14:09:39;18.17;;;5.47;;
42104;SDS011;70664;51.472;5.712;2023-12-28T14:12:05;23.77;;;5.07;;
42104;SDS011;70664;51.472;5.712;2023-12-28T14:14:31;28.95;;;10.32;;
42104;SDS011;70664;51.472;5.712;2023-12-28T14:16:57;104.35;;;41.53;;
42104;SDS011;70664;51.472;5.712;2023-12-28T14:19:23;83.97;;;28.50;;
42104;SDS011;70664;51.472;5.712;2023-12-28T14:21:49;86.78;;;29.83;;
42104;SDS011;70664;51.472;5.712;2023-12-28T14:24:15;63.75;;;23.15;;
42104;SDS011;70664;51.472;5.712;2023-12-28T14:26:43;93.05;;;28.45;;
42104;SDS011;70664;51.472;5.712;2023-12-28T14:29:10;92.10;;;29.35;;
42104;SDS011;70664;51.472;5.712;2023-12-28T14:31:36;105.13;;;32.85;;
42104;SDS011;70664;51.472;5.712;2023-12-28T14:34:04;102.63;;;31.52;;
42104;SDS011;70664;51.472;5.712;2023-12-28T14:36:31;77.40;;;24.35;;
42104;SDS011;70664;51.472;5.712;2023-12-28T14:39:01;86.53;;;28.13;;
42104;SDS011;70664;51.472;5.712;2023-12-28T14:41:36;89.30;;;30.27;;
42104;SDS011;70664;51.472;5.712;2023-12-28T14:44:03;99.80;;;31.88;;
42104;SDS011;70664;51.472;5.712;2023-12-28T14:46:29;105.07;;;30.73;;
42104;SDS011;70664;51.472;5.712;2023-12-28T14:48:55;154.23;;;50.03;;
42104;SDS011;70664;51.472;5.712;2023-12-28T14:51:22;127.68;;;38.63;;
42104;SDS011;70664;51.472;5.712;2023-12-28T14:53:48;134.27;;;47.65;;
42104;SDS011;70664;51.472;5.712;2023-12-28T14:56:18;110.10;;;39.20;;